Hemavan, Sweden

1:05 PM CEST on August 01, 2014 (GMT +0200)
Hemavan (IHEMAVAN2) Elev 1617 ft | 65.81 °N, 15.11 °E | Change Station

Current weather conditions updated 5 minutes ago

Overcast
Overcast
58.1 °F
Feels Like 58.1 °F
N
2.0
Wind Variable Wind from WNW
Gusts 2.0 mph

Today is forecast to be Cooler than yesterday. Showers.

Today
High -- | Low -- °F
--% Chance of Precip.
Yesterday
High -- | Low -- °F
Precip. -- in
3:47 AM 10:21 PM
Waxing Crescent, 25% visible
Pressure 29.71 in
Visibility 6.2 miles
Clouds Overcast 4500 ft
Dew Point 48 °F
Humidity 68%
Rainfall 0.01 in
Snow Depth Not available.
UV 2.7 out of 12
Pollen Not available.
Air Quality Not available.
Flu Activity Not available.
METAR ESUT 011050Z AUTO 22005KT 170V290 9999 OVC045/// 15/08 Q1006

More Conditions Fewer Conditions

Pressure 29.71 in
Visibility 6.2 miles
Clouds Overcast 4500 ft
Dew Point 48 °F
Humidity 68%
Rainfall 0.01 in
Snow Depth Not available.
UV 2.7 out of 12
Pollen Not available.
Air Quality Not available.
Flu Activity Not available.
METAR ESUT 011050Z AUTO 22005KT 170V290 9999 OVC045/// 15/08 Q1006

More Conditions Fewer Conditions

10-Day Weather Forecast

Almanac

Astronomy

Aug. 01, 2014 Rise Set
Actual Time 3:47 AM CEST 10:21 PM CEST
Civil Twilight 1:28 AM CEST 12:25 AM CEST
Nautical Twilight Sun does not rise Sun does not rise
Astronomical Twilight Sun does not rise Sun does not rise
Moon 11:31 AM CEST 10:12 PM CEST
Length of Visible Light 22h 56m
Length of Day
18h 34m
Tomorrow will be 7m 40s shorter.
Waxing Crescent, 25% of the Moon is Illuminated
Today
Waxing Crescent
Aug 3
First Quarter
Aug 10
Full
Aug 17
Last Quarter
Aug 25
New

Yesterday's Extremes

Country Highs Country Lows

Community

WunderPhotos

Upload Photos

1,739,536 photos uploaded!

Nearby

Snow Depth

Not available.

Earthquake Activity

City Distance Mag. Time & Date
No recent earthquake activity has been reported nearby.
Minimum magnitude displayed is 2.5.

Coastal Water Temperatures

Place Temperature
No Stations Reporting

Nearby Weather Stations

Station Location Temp. Dew Point Humidity Wind Precip. Elev Updated Type
Hemavan, Hemavan 58.1 °F 48 °F 68% WNW  at  2.0 mph 0.00 in / hr 1617 ft 1:00 PM CEST Normal

Show More Stations Show Fewer Stations